Time;durP1;ratioP1;P1;durP2;ratioP2;P2;SDS_P1;SDS_P2;PMS_P1;PMS_P2;Temp;Humidity;BMP_temperature;BMP_pressure;BME280_temperature;BME280_humidity;BME280_pressure;Samples;Min_cycle;Max_cycle;Signal;HPM_P1;HPM_P2
2023/04/18 00:01:52;;;;;;;10.03;8.77;;;8.30;99.90;;;;;;4930482;29;20222;-67
2023/04/18 00:04:19;;;;;;;11.30;9.00;;;8.30;99.90;;;;;;4930161;29;20216;-67
2023/04/18 00:06:48;;;;;;;10.03;9.00;;;8.40;99.90;;;;;;4929987;29;20324;-66
2023/04/18 00:09:15;;;;;;;10.03;8.90;;;8.30;99.90;;;;;;4930256;29;20235;-67
2023/04/18 00:11:44;;;;;;;9.77;8.77;;;8.30;99.90;;;;;;4929676;29;20295;-67
2023/04/18 00:14:11;;;;;;;10.90;9.07;;;8.30;99.90;;;;;;4930373;29;20208;-67
2023/04/18 00:16:38;;;;;;;10.30;9.00;;;8.30;99.90;;;;;;4929483;29;20272;-67
2023/04/18 00:19:05;;;;;;;9.77;8.33;;;8.30;99.90;;;;;;4930259;29;20805;-67
2023/04/18 00:21:32;;;;;;;9.67;8.67;;;8.20;99.90;;;;;;4930220;29;20212;-67
2023/04/18 00:23:59;;;;;;;9.97;8.97;;;8.20;99.90;;;;;;4929727;29;20220;-67
2023/04/18 00:26:26;;;;;;;9.73;8.73;;;8.20;99.90;;;;;;4929815;29;20590;-67
2023/04/18 00:28:55;;;;;;;9.60;8.60;;;8.20;99.90;;;;;;4929561;29;20250;-67
2023/04/18 00:31:22;;;;;;;9.20;8.27;;;8.30;99.90;;;;;;4929862;29;20287;-67
2023/04/18 00:33:48;;;;;;;10.77;8.93;;;8.30;99.90;;;;;;4929929;29;20204;-67
2023/04/18 00:36:15;;;;;;;9.17;8.33;;;8.30;99.90;;;;;;4929742;29;20229;-66
2023/04/18 00:38:42;;;;;;;9.43;8.53;;;8.30;99.90;;;;;;4929472;29;20244;-67
2023/04/18 00:41:09;;;;;;;10.27;9.00;;;8.30;99.90;;;;;;4929548;29;20214;-67
2023/04/18 00:43:36;;;;;;;9.70;8.70;;;8.20;99.90;;;;;;4929822;29;20212;-67
2023/04/18 00:46:05;;;;;;;9.40;8.50;;;8.20;99.90;;;;;;4929774;29;20272;-67
2023/04/18 00:48:32;;;;;;;9.97;8.57;;;8.20;99.90;;;;;;4929038;29;20302;-67
2023/04/18 00:50:59;;;;;;;10.90;8.47;;;8.20;99.90;;;;;;4929093;29;20222;-67
2023/04/18 00:53:26;;;;;;;10.23;8.87;;;8.20;99.90;;;;;;4929001;29;20586;-66
2023/04/18 00:55:53;;;;;;;9.93;8.80;;;8.20;99.90;;;;;;4929737;29;20219;-66
2023/04/18 00:58:20;;;;;;;9.70;8.43;;;8.20;99.90;;;;;;4928922;29;20219;-66
2023/04/18 01:00:48;;;;;;;11.40;8.73;;;8.20;99.90;;;;;;4916382;29;20240;-66
2023/04/18 01:03:18;;;;;;;9.70;8.80;;;8.10;99.90;;;;;;4910497;29;20297;-66
2023/04/18 01:05:45;;;;;;;10.50;9.00;;;8.10;99.90;;;;;;4921716;29;20478;-67
2023/04/18 01:08:14;;;;;;;9.30;8.40;;;8.00;99.90;;;;;;4929023;29;20315;-67
2023/04/18 01:10:41;;;;;;;9.70;8.70;;;8.10;99.90;;;;;;4928772;29;20290;-67
2023/04/18 01:13:13;;;;;;;9.13;8.17;;;8.10;99.90;;;;;;4929096;29;20212;-67
2023/04/18 01:15:41;;;;;;;9.60;8.60;;;8.10;99.90;;;;;;4928563;29;20308;-67
2023/04/18 01:18:08;;;;;;;9.30;8.40;;;8.00;99.90;;;;;;4928441;29;20730;-67
2023/04/18 01:20:41;;;;;;;10.90;8.50;;;8.00;99.90;;;;;;4928557;29;20253;-67
2023/04/18 01:23:09;;;;;;;9.30;8.30;;;8.10;99.90;;;;;;4928674;29;20204;-67
2023/04/18 01:25:37;;;;;;;10.27;8.87;;;8.00;99.90;;;;;;4928738;29;20443;-67
2023/04/18 01:28:05;;;;;;;11.23;9.33;;;8.00;99.90;;;;;;4928223;29;20238;-67
2023/04/18 01:30:32;;;;;;;9.50;8.60;;;8.00;99.90;;;;;;4927966;29;20224;-67
2023/04/18 01:33:00;;;;;;;10.47;7.90;;;8.00;99.90;;;;;;4928455;29;20217;-67
2023/04/18 01:35:27;;;;;;;8.63;7.70;;;8.10;99.90;;;;;;4928422;29;20231;-67
2023/04/18 01:37:54;;;;;;;8.53;7.73;;;8.10;99.90;;;;;;4928212;29;20311;-67
2023/04/18 01:40:21;;;;;;;8.97;8.07;;;8.10;99.90;;;;;;4927650;29;20977;-67
2023/04/18 01:42:49;;;;;;;8.47;7.57;;;8.10;99.90;;;;;;4927754;29;20664;-67
2023/04/18 01:45:17;;;;;;;9.10;8.20;;;8.10;99.90;;;;;;4928012;29;20304;-67
2023/04/18 01:47:44;;;;;;;9.83;8.43;;;8.10;99.90;;;;;;4927776;29;21089;-67
2023/04/18 01:50:11;;;;;;;9.40;8.37;;;8.00;99.90;;;;;;4928316;29;20215;-67
2023/04/18 01:52:38;;;;;;;10.73;9.00;;;8.10;99.90;;;;;;4928151;29;20299;-67
2023/04/18 01:55:06;;;;;;;9.73;8.20;;;8.00;99.90;;;;;;4928185;29;20218;-68
2023/04/18 01:57:35;;;;;;;11.13;9.03;;;8.00;99.90;;;;;;4927822;29;21012;-68
2023/04/18 02:00:05;;;;;;;9.40;8.10;;;8.00;99.90;;;;;;4920969;29;20219;-67
2023/04/18 02:02:31;;;;;;;9.60;8.60;;;8.00;99.90;;;;;;4927869;29;20228;-67
2023/04/18 02:04:58;;;;;;;9.33;8.43;;;7.90;99.90;;;;;;4928189;29;20299;-67
2023/04/18 02:07:25;;;;;;;10.03;8.60;;;7.90;99.90;;;;;;4927894;29;20326;-67
2023/04/18 02:09:52;;;;;;;10.07;8.60;;;7.90;99.90;;;;;;4928062;29;20307;-67
2023/04/18 02:12:19;;;;;;;8.87;8.00;;;7.90;99.90;;;;;;4928095;29;20208;-67
2023/04/18 02:14:51;;;;;;;9.30;8.37;;;7.90;99.90;;;;;;4927601;29;20251;-67
2023/04/18 02:17:20;;;;;;;9.40;8.50;;;7.90;99.90;;;;;;4927749;29;20248;-67
2023/04/18 02:19:47;;;;;;;9.10;8.20;;;7.90;99.90;;;;;;4927673;29;20232;-67
2023/04/18 02:22:14;;;;;;;8.97;8.07;;;7.90;99.90;;;;;;4926791;29;20708;-70
2023/04/18 02:24:41;;;;;;;9.67;8.67;;;7.90;99.90;;;;;;4927062;29;20259;-68
2023/04/18 02:27:08;;;;;;;9.93;8.83;;;8.00;99.90;;;;;;4927060;29;20206;-68
2023/04/18 02:29:35;;;;;;;10.73;8.67;;;7.90;99.90;;;;;;4926529;29;20212;-68
2023/04/18 02:32:03;;;;;;;9.23;8.33;;;7.90;99.90;;;;;;4927295;29;20307;-68
2023/04/18 02:34:32;;;;;;;9.03;8.10;;;7.90;99.90;;;;;;4921669;29;20225;-68
2023/04/18 02:36:59;;;;;;;9.20;8.30;;;7.80;99.90;;;;;;4911738;29;20208;-68
2023/04/18 02:39:26;;;;;;;11.17;8.83;;;7.80;99.90;;;;;;4925874;29;20928;-68
2023/04/18 02:41:53;;;;;;;9.20;8.30;;;7.90;99.90;;;;;;4926148;29;20208;-68
2023/04/18 02:44:20;;;;;;;8.97;8.17;;;7.80;99.90;;;;;;4926248;29;20762;-68
2023/04/18 02:46:47;;;;;;;8.90;8.00;;;7.90;99.90;;;;;;4925534;29;20385;-68
2023/04/18 02:49:14;;;;;;;9.67;8.67;;;7.80;99.90;;;;;;4926107;29;20979;-68
2023/04/18 02:51:42;;;;;;;10.20;8.43;;;7.90;99.90;;;;;;4926310;29;20389;-68
2023/04/18 02:54:09;;;;;;;8.97;7.90;;;7.90;99.90;;;;;;4929779;29;20312;-68
2023/04/18 02:56:38;;;;;;;10.87;8.73;;;7.90;99.90;;;;;;4930067;29;20299;-68
2023/04/18 02:59:05;;;;;;;9.07;8.17;;;7.90;99.90;;;;;;4929350;29;20216;-68
2023/04/18 03:01:33;;;;;;;9.60;8.43;;;7.80;99.90;;;;;;4927574;29;20205;-68
2023/04/18 03:04:00;;;;;;;8.83;7.93;;;7.80;99.90;;;;;;4930264;29;20235;-68
2023/04/18 03:06:27;;;;;;;9.60;8.70;;;7.80;99.90;;;;;;4930262;29;20655;-68
2023/04/18 03:08:55;;;;;;;9.10;8.27;;;7.70;99.90;;;;;;4930467;29;20242;-68
2023/04/18 03:11:22;;;;;;;10.47;8.00;;;7.60;99.90;;;;;;4930502;29;20212;-68
2023/04/18 03:13:49;;;;;;;8.43;7.63;;;7.60;99.90;;;;;;4930107;29;20212;-68
2023/04/18 03:16:16;;;;;;;8.87;7.97;;;7.60;99.90;;;;;;4930127;29;20251;-68
2023/04/18 03:18:43;;;;;;;8.93;7.97;;;7.60;99.90;;;;;;4930340;29;20200;-68
2023/04/18 03:21:10;;;;;;;10.40;8.23;;;7.50;99.90;;;;;;4930610;29;20302;-68
2023/04/18 03:23:37;;;;;;;8.27;7.57;;;7.50;99.90;;;;;;4930539;29;20228;-68
2023/04/18 03:26:07;;;;;;;9.73;7.90;;;7.50;99.90;;;;;;4931131;29;20299;-68
2023/04/18 03:28:34;;;;;;;9.30;8.27;;;7.60;99.90;;;;;;4928451;29;20926;-68
2023/04/18 03:31:03;;;;;;;9.73;7.73;;;7.50;99.90;;;;;;4911948;29;20208;-68
2023/04/18 03:33:30;;;;;;;9.33;8.17;;;7.50;99.90;;;;;;4911589;29;20622;-68
2023/04/18 03:35:58;;;;;;;10.07;8.33;;;7.60;99.90;;;;;;4911563;29;20212;-68
2023/04/18 03:38:25;;;;;;;9.07;8.17;;;7.60;99.90;;;;;;4911513;29;20253;-68
2023/04/18 03:40:52;;;;;;;9.03;8.13;;;7.60;99.90;;;;;;4911669;29;20401;-68
2023/04/18 03:43:20;;;;;;;10.50;8.00;;;7.60;99.90;;;;;;4911626;29;20735;-68
2023/04/18 03:45:48;;;;;;;9.10;8.30;;;7.60;99.90;;;;;;4911389;29;20214;-68
2023/04/18 03:48:15;;;;;;;8.90;8.00;;;7.60;99.90;;;;;;4911271;29;20332;-68
2023/04/18 03:50:42;;;;;;;9.00;8.20;;;7.60;99.90;;;;;;4911504;29;20208;-68
2023/04/18 03:53:09;;;;;;;8.00;7.23;;;7.60;99.90;;;;;;4911610;29;20240;-68
2023/04/18 03:55:36;;;;;;;9.30;8.40;;;7.60;99.90;;;;;;4912676;29;20248;-68
2023/04/18 03:58:03;;;;;;;8.90;7.83;;;7.60;99.90;;;;;;4930626;29;20212;-69
2023/04/18 04:00:32;;;;;;;9.33;8.20;;;7.50;99.90;;;;;;4930309;29;20310;-68
2023/04/18 04:02:59;;;;;;;9.67;8.30;;;7.50;99.90;;;;;;4930435;29;20302;-68
2023/04/18 04:05:26;;;;;;;9.10;8.20;;;7.50;99.90;;;;;;4929388;29;20962;-69
2023/04/18 04:07:53;;;;;;;9.03;8.23;;;7.50;99.90;;;;;;4930137;29;20327;-68
2023/04/18 04:10:20;;;;;;;9.17;8.27;;;7.50;99.90;;;;;;4930190;29;20697;-68
2023/04/18 04:12:47;;;;;;;9.20;8.20;;;7.50;99.90;;;;;;4929612;29;20386;-68
2023/04/18 04:15:14;;;;;;;9.90;8.50;;;7.50;99.90;;;;;;4929587;29;20330;-68
2023/04/18 04:17:42;;;;;;;10.03;8.30;;;7.50;99.90;;;;;;4929268;29;20331;-68
2023/04/18 04:20:10;;;;;;;9.60;8.63;;;7.50;99.90;;;;;;4929627;29;20703;-68
2023/04/18 04:22:37;;;;;;;9.17;8.13;;;7.50;99.90;;;;;;4929213;29;20332;-68
2023/04/18 04:25:06;;;;;;;9.80;8.47;;;7.50;99.90;;;;;;4929933;29;20219;-68
2023/04/18 04:27:35;;;;;;;9.50;8.63;;;7.60;99.90;;;;;;4929514;29;20208;-68
2023/04/18 04:30:03;;;;;;;9.40;8.40;;;7.60;99.90;;;;;;4915908;29;20250;-68
2023/04/18 04:32:31;;;;;;;10.60;9.13;;;7.50;99.90;;;;;;4910942;29;20212;-68
2023/04/18 04:35:00;;;;;;;9.93;8.93;;;7.60;99.90;;;;;;4910567;29;20304;-68
2023/04/18 04:37:27;;;;;;;12.30;8.87;;;7.60;99.90;;;;;;4910794;29;20233;-68
2023/04/18 04:39:55;;;;;;;11.60;8.50;;;7.50;99.90;;;;;;4910759;29;20299;-68
2023/04/18 04:42:24;;;;;;;9.90;8.90;;;7.50;99.90;;;;;;4910982;29;20220;-68
2023/04/18 04:44:52;;;;;;;9.90;8.90;;;7.60;99.90;;;;;;4915676;29;20678;-68
2023/04/18 04:47:19;;;;;;;9.63;8.73;;;7.50;99.90;;;;;;4929630;29;20303;-68
2023/04/18 04:49:46;;;;;;;11.67;8.73;;;7.50;99.90;;;;;;4929633;29;20335;-68
2023/04/18 04:52:14;;;;;;;9.70;8.80;;;7.50;99.90;;;;;;4929209;29;20663;-68
2023/04/18 04:54:43;;;;;;;10.27;9.17;;;7.60;99.90;;;;;;4929451;29;20291;-68
2023/04/18 04:57:10;;;;;;;9.67;8.63;;;7.60;99.90;;;;;;4929212;29;20218;-68
2023/04/18 04:59:37;;;;;;;12.30;8.90;;;7.60;99.90;;;;;;4928936;29;20216;-68
2023/04/18 05:02:04;;;;;;;11.53;9.17;;;7.60;99.90;;;;;;4927251;29;20295;-68
2023/04/18 05:04:31;;;;;;;9.17;8.27;;;7.70;99.90;;;;;;4928612;29;20763;-68
2023/04/18 05:06:58;;;;;;;9.57;8.57;;;7.70;99.90;;;;;;4928923;29;20295;-68
2023/04/18 05:09:26;;;;;;;9.13;8.30;;;7.80;99.90;;;;;;4928768;29;20323;-68
2023/04/18 05:11:53;;;;;;;9.10;8.20;;;7.90;99.90;;;;;;4928811;29;20216;-68
2023/04/18 05:14:20;;;;;;;10.17;8.93;;;7.90;99.90;;;;;;4928873;29;20295;-68
2023/04/18 05:16:47;;;;;;;9.83;8.83;;;7.90;99.90;;;;;;4927734;29;20255;-68
2023/04/18 05:19:14;;;;;;;9.67;8.70;;;7.90;99.90;;;;;;4928937;29;20307;-68
2023/04/18 05:21:41;;;;;;;9.70;8.80;;;7.90;99.90;;;;;;4928733;29;20841;-67
2023/04/18 05:24:08;;;;;;;9.40;8.33;;;7.90;99.90;;;;;;4929265;29;20299;-68
2023/04/18 05:26:40;;;;;;;9.00;8.20;;;7.90;99.90;;;;;;4929202;29;20295;-68
2023/04/18 05:29:07;;;;;;;9.27;8.37;;;7.90;99.90;;;;;;4928657;29;20236;-68
2023/04/18 05:31:34;;;;;;;10.30;8.87;;;7.90;99.90;;;;;;4929109;29;20276;-68
2023/04/18 05:34:01;;;;;;;9.50;8.60;;;7.90;99.90;;;;;;4928674;29;20212;-68
2023/04/18 05:36:28;;;;;;;9.63;8.73;;;7.90;99.90;;;;;;4928717;29;20240;-68
2023/04/18 05:38:55;;;;;;;9.60;8.60;;;7.90;99.90;;;;;;4928457;29;20232;-68
2023/04/18 05:41:22;;;;;;;10.80;8.73;;;7.90;99.90;;;;;;4928159;29;20216;-68
2023/04/18 05:43:50;;;;;;;9.50;8.53;;;7.90;99.90;;;;;;4928060;29;20216;-68
2023/04/18 05:46:17;;;;;;;12.07;9.03;;;7.90;99.90;;;;;;4928630;29;20307;-68
2023/04/18 05:48:44;;;;;;;9.80;8.57;;;7.90;99.90;;;;;;4921815;29;20813;-68
2023/04/18 05:51:11;;;;;;;10.13;8.33;;;7.90;99.90;;;;;;4909535;29;20292;-68
2023/04/18 05:53:38;;;;;;;10.27;8.33;;;7.90;99.90;;;;;;4909557;29;20320;-68
2023/04/18 05:56:06;;;;;;;9.20;8.40;;;7.80;99.90;;;;;;4909460;29;20267;-68
2023/04/18 05:58:33;;;;;;;9.60;8.70;;;7.90;99.90;;;;;;4911787;29;20846;-68
2023/04/18 06:01:01;;;;;;;9.23;8.33;;;7.80;99.90;;;;;;4928155;29;20208;-68
2023/04/18 06:03:28;;;;;;;9.43;8.43;;;7.80;99.90;;;;;;4928509;29;20580;-68
2023/04/18 06:05:55;;;;;;;10.57;8.37;;;7.80;99.90;;;;;;4928593;29;20208;-68
2023/04/18 06:08:22;;;;;;;10.07;9.07;;;7.80;99.90;;;;;;4928432;29;20240;-68
2023/04/18 06:10:49;;;;;;;12.73;8.03;;;7.90;99.90;;;;;;4928240;29;20212;-68
2023/04/18 06:13:16;;;;;;;9.10;8.20;;;7.90;99.90;;;;;;4928336;29;20228;-68
2023/04/18 06:15:43;;;;;;;8.20;7.50;;;7.90;99.90;;;;;;4928109;29;20209;-67
2023/04/18 06:18:11;;;;;;;11.00;8.30;;;8.00;99.90;;;;;;4927974;29;20236;-68
2023/04/18 06:20:38;;;;;;;8.10;7.30;;;8.00;99.90;;;;;;4928128;29;20251;-68
2023/04/18 06:23:07;;;;;;;8.60;7.73;;;8.10;99.90;;;;;;4928184;29;20729;-67
2023/04/18 06:25:33;;;;;;;9.30;8.40;;;8.10;99.90;;;;;;4927893;29;20227;-67
2023/04/18 06:28:00;;;;;;;8.77;7.97;;;8.20;99.90;;;;;;4930796;29;20238;-68
2023/04/18 06:30:27;;;;;;;8.57;7.77;;;8.20;99.90;;;;;;4931674;29;20240;-67
2023/04/18 06:32:54;;;;;;;8.53;7.60;;;8.20;99.90;;;;;;4932025;29;20753;-68
2023/04/18 06:35:23;;;;;;;8.97;7.80;;;8.20;99.90;;;;;;4932035;29;20670;-68
2023/04/18 06:37:50;;;;;;;8.60;7.80;;;8.20;99.90;;;;;;4931519;29;20266;-68
2023/04/18 06:40:17;;;;;;;8.87;7.70;;;8.30;99.90;;;;;;4932175;29;20341;-68
2023/04/18 06:42:44;;;;;;;8.40;7.50;;;8.30;99.90;;;;;;4932059;29;20208;-68
2023/04/18 06:45:11;;;;;;;9.00;7.80;;;8.40;99.90;;;;;;4931565;29;20303;-68
2023/04/18 06:47:39;;;;;;;8.37;7.47;;;8.40;99.90;;;;;;4931628;29;20697;-68
2023/04/18 06:50:07;;;;;;;8.43;7.63;;;8.40;99.90;;;;;;4931674;29;20321;-68
2023/04/18 06:52:39;;;;;;;8.47;7.57;;;8.50;99.90;;;;;;4931576;29;20212;-68
2023/04/18 06:55:08;;;;;;;9.97;8.10;;;8.60;99.90;;;;;;4931658;29;20200;-69
2023/04/18 06:57:35;;;;;;;11.50;8.43;;;8.60;99.90;;;;;;4931706;29;20213;-68
2023/04/18 07:00:02;;;;;;;8.97;7.30;;;8.60;99.90;;;;;;4931403;29;20216;-68
2023/04/18 07:02:29;;;;;;;9.50;7.70;;;8.60;99.90;;;;;;4931374;29;20212;-68
2023/04/18 07:04:56;;;;;;;9.67;7.93;;;8.60;99.90;;;;;;4931488;29;20215;-68
2023/04/18 07:07:25;;;;;;;9.33;7.40;;;8.70;99.90;;;;;;4931118;29;20299;-68
2023/04/18 07:09:53;;;;;;;8.20;7.40;;;8.70;99.90;;;;;;4931327;29;20608;-68
2023/04/18 07:12:20;;;;;;;9.17;7.57;;;8.80;99.90;;;;;;4931328;29;20212;-68
2023/04/18 07:14:47;;;;;;;10.27;7.70;;;8.80;99.90;;;;;;4930732;29;20208;-68
2023/04/18 07:17:14;;;;;;;12.73;8.20;;;8.90;99.90;;;;;;4931117;29;20326;-68
2023/04/18 07:19:41;;;;;;;8.40;7.37;;;8.90;99.90;;;;;;4930795;29;20750;-68
2023/04/18 07:22:08;;;;;;;9.77;7.90;;;8.90;99.90;;;;;;4931060;29;20287;-68
2023/04/18 07:24:35;;;;;;;8.80;7.90;;;8.90;99.90;;;;;;4931170;29;20295;-68
2023/04/18 07:27:04;;;;;;;9.00;7.87;;;9.00;99.90;;;;;;4931135;29;20295;-68
2023/04/18 07:29:30;;;;;;;10.33;8.00;;;9.00;99.90;;;;;;4930647;29;20335;-68
2023/04/18 07:31:58;;;;;;;10.30;7.63;;;9.00;99.90;;;;;;4931290;29;20227;-68
2023/04/18 07:34:26;;;;;;;8.53;7.70;;;9.10;99.90;;;;;;4930536;29;20299;-68
2023/04/18 07:36:53;;;;;;;10.13;7.60;;;9.20;99.90;;;;;;4930569;29;20224;-68
2023/04/18 07:39:20;;;;;;;8.10;7.30;;;9.20;99.90;;;;;;4929537;29;20299;-68
2023/04/18 07:41:46;;;;;;;9.73;7.37;;;9.30;99.90;;;;;;4930407;29;20303;-68
2023/04/18 07:44:15;;;;;;;10.07;7.70;;;9.40;99.90;;;;;;4930702;29;20327;-68
2023/04/18 07:46:42;;;;;;;9.40;7.50;;;9.40;99.90;;;;;;4930698;29;20244;-68
2023/04/18 07:49:09;;;;;;;10.73;7.70;;;9.40;99.90;;;;;;4930565;29;20216;-68
2023/04/18 07:51:35;;;;;;;8.73;7.93;;;9.40;99.90;;;;;;4930481;29;20216;-68
2023/04/18 07:54:02;;;;;;;7.77;7.00;;;9.50;99.90;;;;;;4930555;29;20312;-68
2023/04/18 07:56:29;;;;;;;9.17;7.70;;;9.50;99.90;;;;;;4930321;29;20750;-68
2023/04/18 07:58:56;;;;;;;9.30;7.50;;;9.50;99.90;;;;;;4930390;29;20679;-68
2023/04/18 08:01:26;;;;;;;8.43;7.50;;;9.60;99.90;;;;;;4930690;29;20259;-68
2023/04/18 08:03:53;;;;;;;8.87;7.97;;;9.60;99.90;;;;;;4930502;29;20738;-68
2023/04/18 08:06:20;;;;;;;7.93;7.23;;;9.70;99.90;;;;;;4930477;29;20215;-68
2023/04/18 08:08:47;;;;;;;7.97;7.17;;;9.70;99.90;;;;;;4930477;29;20218;-68
2023/04/18 08:11:14;;;;;;;8.60;7.80;;;9.80;99.90;;;;;;4930216;29;20334;-68
2023/04/18 08:13:41;;;;;;;8.00;7.20;;;9.80;99.90;;;;;;4929862;29;20220;-68
2023/04/18 08:16:09;;;;;;;8.63;7.83;;;9.90;99.90;;;;;;4929904;29;20307;-68
2023/04/18 08:18:37;;;;;;;8.80;7.23;;;10.00;99.90;;;;;;4930183;29;20243;-68
2023/04/18 08:21:04;;;;;;;8.50;7.70;;;10.00;99.90;;;;;;4929724;29;20760;-68
2023/04/18 08:23:31;;;;;;;9.53;8.27;;;10.10;99.90;;;;;;4929862;29;20239;-68
2023/04/18 08:25:58;;;;;;;8.73;7.77;;;10.10;99.90;;;;;;4929782;29;20304;-68
2023/04/18 08:28:25;;;;;;;7.57;6.87;;;10.20;99.90;;;;;;4928756;29;20219;-68
2023/04/18 08:30:53;;;;;;;8.57;7.70;;;10.30;99.90;;;;;;4910760;29;20264;-68
2023/04/18 08:33:21;;;;;;;8.43;7.63;;;10.40;99.90;;;;;;4910323;29;20703;-69
2023/04/18 08:35:51;;;;;;;8.80;7.90;;;10.30;99.90;;;;;;4910384;29;20311;-68
2023/04/18 08:38:18;;;;;;;8.53;7.73;;;10.30;99.90;;;;;;4922739;29;20373;-68
2023/04/18 08:40:46;;;;;;;9.17;7.33;;;10.30;99.90;;;;;;4929333;29;20303;-68
2023/04/18 08:43:14;;;;;;;8.20;7.50;;;10.30;99.90;;;;;;4929998;29;20404;-68
2023/04/18 08:45:41;;;;;;;8.03;7.27;;;10.30;99.90;;;;;;4929520;29;20216;-68
2023/04/18 08:48:12;;;;;;;7.60;6.90;;;10.30;99.90;;;;;;4929893;29;20236;-68
2023/04/18 08:50:39;;;;;;;7.57;6.87;;;10.30;99.90;;;;;;4929019;29;20713;-68
2023/04/18 08:53:08;;;;;;;7.80;7.00;;;10.30;99.90;;;;;;4929522;29;20622;-68
2023/04/18 08:55:35;;;;;;;7.77;7.00;;;10.30;99.90;;;;;;4929423;29;20239;-68
2023/04/18 08:58:03;;;;;;;8.83;7.30;;;10.30;99.90;;;;;;4929691;29;20216;-68
2023/04/18 09:00:31;;;;;;;9.20;7.43;;;10.30;99.90;;;;;;4911621;29;20248;-68
2023/04/18 09:02:59;;;;;;;9.03;7.10;;;10.40;99.90;;;;;;4910163;29;20224;-68
2023/04/18 09:05:26;;;;;;;8.80;7.87;;;10.30;99.90;;;;;;4910249;29;20228;-68
2023/04/18 09:07:55;;;;;;;8.23;7.43;;;10.30;99.90;;;;;;4910109;29;20663;-68
2023/04/18 09:10:28;;;;;;;10.83;8.00;;;10.40;99.90;;;;;;4909850;29;20310;-68
2023/04/18 09:12:56;;;;;;;11.43;8.33;;;10.40;99.90;;;;;;4910295;29;20212;-68
2023/04/18 09:15:25;;;;;;;8.37;7.57;;;10.40;99.90;;;;;;4909935;29;20221;-68
2023/04/18 09:17:54;;;;;;;9.37;7.80;;;10.40;99.90;;;;;;4909730;29;20252;-68
2023/04/18 09:20:36;;;;;;;8.07;7.27;;;10.50;99.90;;;;;;4925848;29;20267;-68
2023/04/18 09:23:04;;;;;;;10.17;8.30;;;10.50;99.90;;;;;;4928650;29;20659;-68
2023/04/18 09:25:34;;;;;;;9.70;7.50;;;10.50;99.90;;;;;;4928508;29;20282;-68
2023/04/18 09:28:02;;;;;;;9.37;7.67;;;10.50;99.90;;;;;;4910151;29;20212;-68
2023/04/18 09:30:36;;;;;;;8.60;7.80;;;10.50;99.90;;;;;;4926925;29;20347;-69
2023/04/18 09:33:06;;;;;;;7.87;7.07;;;10.50;99.90;;;;;;4928560;29;20204;-69
2023/04/18 09:35:33;;;;;;;8.90;7.33;;;10.50;99.90;;;;;;4928230;29;20675;-68
2023/04/18 09:38:00;;;;;;;7.57;6.87;;;10.60;99.90;;;;;;4928242;29;20232;-69
2023/04/18 09:40:27;;;;;;;10.17;7.63;;;10.60;99.90;;;;;;4928294;29;20762;-69
2023/04/18 09:42:56;;;;;;;9.87;7.50;;;10.60;99.90;;;;;;4928250;29;20244;-69
2023/04/18 09:45:24;;;;;;;8.57;7.23;;;10.60;99.90;;;;;;4928424;29;20299;-68
2023/04/18 09:47:51;;;;;;;8.37;7.43;;;10.60;99.90;;;;;;4928283;29;20754;-69
2023/04/18 09:50:19;;;;;;;9.33;7.10;;;10.70;99.90;;;;;;4928220;29;20311;-69
2023/04/18 09:52:47;;;;;;;12.30;8.17;;;10.70;99.90;;;;;;4928347;29;20208;-68
2023/04/18 09:55:16;;;;;;;7.90;7.03;;;10.80;99.90;;;;;;4927816;29;20302;-69
2023/04/18 09:57:45;;;;;;;7.47;6.87;;;10.90;99.90;;;;;;4927765;29;20298;-69
2023/04/18 10:00:22;;;;;;;7.37;6.67;;;11.00;99.90;;;;;;4927698;28;20215;-69
2023/04/18 10:02:56;;;;;;;8.20;7.10;;;11.10;99.90;;;;;;4927729;29;20339;-68
2023/04/18 10:05:25;;;;;;;9.13;6.87;;;11.30;99.90;;;;;;4928086;29;20282;-68
2023/04/18 10:07:53;;;;;;;7.13;6.37;;;11.40;99.90;;;;;;4927608;29;20327;-69
2023/04/18 10:10:21;;;;;;;7.67;6.80;;;11.50;99.90;;;;;;4927887;29;20268;-68
2023/04/18 10:12:49;;;;;;;7.00;6.30;;;11.60;99.90;;;;;;4928147;29;20303;-69
2023/04/18 10:15:20;;;;;;;7.77;7.07;;;11.80;99.90;;;;;;4927920;29;20208;-69
2023/04/18 10:17:53;;;;;;;8.57;6.83;;;11.90;99.90;;;;;;4927712;29;20334;-69
2023/04/18 10:20:21;;;;;;;8.80;7.13;;;11.90;99.90;;;;;;4928428;29;20307;-68
2023/04/18 10:22:49;;;;;;;8.13;7.43;;;12.10;99.90;;;;;;4927442;29;20215;-69
2023/04/18 10:25:49;;;;;;;8.00;7.20;;;12.10;99.90;;;;;;4927767;29;20741;-71
2023/04/18 10:28:17;;;;;;;8.73;7.67;;;12.20;99.90;;;;;;4927848;29;20242;-69
2023/04/18 10:31:01;;;;;;;8.10;7.40;;;12.20;99.90;;;;;;4919985;29;20805;-69
2023/04/18 10:33:37;;;;;;;7.87;7.10;;;12.20;99.90;;;;;;4927754;29;20196;-69
2023/04/18 10:36:18;;;;;;;7.77;6.97;;;12.20;99.90;;;;;;4927974;29;20199;-69
2023/04/18 10:38:53;;;;;;;13.83;7.47;;;12.20;99.90;;;;;;4927636;29;20655;-69
2023/04/18 10:41:25;;;;;;;8.10;7.13;;;12.20;99.90;;;;;;4927761;29;20263;-69
2023/04/18 10:44:21;;;;;;;8.37;6.90;;;12.20;99.90;;;;;;4927877;29;20211;-68
2023/04/18 10:47:31;;;;;;;8.17;6.70;;;12.30;99.90;;;;;;4927696;29;20337;-69
2023/04/18 10:50:02;;;;;;;7.83;7.13;;;12.30;99.90;;;;;;4928210;29;20220;-69
2023/04/18 10:52:30;;;;;;;7.30;6.33;;;12.30;99.90;;;;;;4927479;29;20211;-68
2023/04/18 10:55:20;;;;;;;8.63;7.13;;;12.30;99.90;;;;;;4927686;29;20251;-69
2023/04/18 10:57:49;;;;;;;7.30;6.60;;;12.40;99.90;;;;;;4927580;29;20206;-69
2023/04/18 11:00:17;;;;;;;6.77;6.17;;;12.40;99.90;;;;;;4927831;29;20224;-69
2023/04/18 11:02:56;;;;;;;7.17;6.57;;;12.50;99.90;;;;;;4927800;29;20685;-68
2023/04/18 11:05:36;;;;;;;7.37;6.70;;;12.40;99.90;;;;;;4927534;29;20212;-69
2023/04/18 11:08:03;;;;;;;7.03;6.40;;;12.40;99.90;;;;;;4927629;29;20234;-69
2023/04/18 11:10:30;;;;;;;7.40;6.47;;;12.50;99.90;;;;;;4926802;29;20329;-69
2023/04/18 11:13:03;;;;;;;7.33;6.63;;;12.50;99.90;;;;;;4928271;29;20295;-68
2023/04/18 11:15:30;;;;;;;7.23;6.53;;;12.50;99.90;;;;;;4930631;29;20208;-68
2023/04/18 11:17:59;;;;;;;7.27;6.53;;;12.50;99.90;;;;;;4930755;29;21021;-69
2023/04/18 11:20:26;;;;;;;8.00;7.23;;;12.50;99.90;;;;;;4928425;29;20735;-69
2023/04/18 11:22:56;;;;;;;10.13;6.93;;;12.50;99.90;;;;;;4930906;29;20239;-68
2023/04/18 11:25:26;;;;;;;7.77;6.37;;;12.50;99.90;;;;;;4931170;29;20215;-69
2023/04/18 11:27:54;;;;;;;9.77;6.43;;;12.60;99.90;;;;;;4931005;29;20216;-68
2023/04/18 11:30:21;;;;;;;7.70;6.67;;;12.60;99.90;;;;;;4930894;29;20212;-68
2023/04/18 11:32:48;;;;;;;6.77;6.27;;;12.60;99.90;;;;;;4930618;29;20248;-69
2023/04/18 11:35:16;;;;;;;8.87;6.77;;;12.70;99.90;;;;;;4931164;29;20299;-69
2023/04/18 11:37:44;;;;;;;7.30;6.63;;;12.80;99.90;;;;;;4930322;29;20323;-69
2023/04/18 11:40:13;;;;;;;6.20;5.60;;;12.90;99.90;;;;;;4930998;29;20208;-69
2023/04/18 11:42:41;;;;;;;7.97;6.50;;;12.90;99.90;;;;;;4930423;29;20307;-69
2023/04/18 11:45:13;;;;;;;6.40;5.97;;;12.90;99.90;;;;;;4930466;29;20295;-69
2023/04/18 11:47:41;;;;;;;7.57;6.93;;;13.00;99.90;;;;;;4930309;29;20299;-69
2023/04/18 11:50:10;;;;;;;7.87;6.30;;;13.00;99.90;;;;;;4930029;29;20651;-69
2023/04/18 11:52:37;;;;;;;7.50;6.73;;;12.90;99.90;;;;;;4930010;29;20212;-69
2023/04/18 11:55:16;;;;;;;7.13;6.47;;;12.90;99.90;;;;;;4938437;29;20204;-69
2023/04/18 11:57:49;;;;;;;7.50;6.70;;;13.00;99.90;;;;;;4949329;28;20238;-68
2023/04/18 12:00:18;;;;;;;8.17;6.73;;;13.00;99.90;;;;;;4933160;28;20609;-69
2023/04/18 12:02:46;;;;;;;7.63;6.50;;;13.00;99.90;;;;;;4930074;29;20682;-69
2023/04/18 12:05:25;;;;;;;9.80;6.60;;;13.00;99.90;;;;;;4930042;29;20742;-69
2023/04/18 12:07:52;;;;;;;6.87;6.27;;;13.00;99.90;;;;;;4930360;29;20212;-69
2023/04/18 12:10:28;;;;;;;7.60;6.50;;;13.00;99.90;;;;;;4930291;29;20243;-69
2023/04/18 12:12:57;;;;;;;6.50;6.00;;;13.00;99.90;;;;;;4930330;29;20677;-69
2023/04/18 12:15:27;;;;;;;7.20;6.57;;;13.00;99.90;;;;;;4929725;29;20216;-69
2023/04/18 12:17:58;;;;;;;8.03;7.23;;;13.00;99.90;;;;;;4929931;29;20247;-69
2023/04/18 12:20:25;;;;;;;7.17;6.43;;;13.00;99.90;;;;;;4930071;29;20210;-69
2023/04/18 12:22:53;;;;;;;6.47;5.97;;;13.10;99.90;;;;;;4930062;29;20271;-69
2023/04/18 12:25:22;;;;;;;6.63;6.13;;;13.10;99.90;;;;;;4929494;29;20224;-69
2023/04/18 12:27:56;;;;;;;8.27;6.57;;;13.10;99.90;;;;;;4929530;29;20220;-69
2023/04/18 12:30:25;;;;;;;11.50;7.60;;;13.10;99.90;;;;;;4929208;29;20752;-69
2023/04/18 12:32:54;;;;;;;7.50;6.80;;;13.10;99.90;;;;;;4929940;29;20221;-69
2023/04/18 12:35:23;;;;;;;7.97;7.27;;;13.10;99.90;;;;;;4929535;29;20216;-69
2023/04/18 12:37:51;;;;;;;7.77;7.07;;;13.10;99.90;;;;;;4929472;29;20235;-69
2023/04/18 12:40:19;;;;;;;9.07;7.17;;;13.10;99.90;;;;;;4929292;29;20239;-69
2023/04/18 12:42:46;;;;;;;7.07;6.37;;;13.20;99.90;;;;;;4929319;29;20584;-69
2023/04/18 12:45:16;;;;;;;11.37;7.47;;;13.20;99.90;;;;;;4929267;29;20204;-69
2023/04/18 12:47:46;;;;;;;7.77;7.07;;;13.20;99.90;;;;;;4929465;29;20295;-69
2023/04/18 12:50:16;;;;;;;7.77;7.17;;;13.20;99.90;;;;;;4929664;29;20235;-69
2023/04/18 12:52:43;;;;;;;10.13;7.37;;;13.20;99.90;;;;;;4929439;29;20228;-69
2023/04/18 12:55:11;;;;;;;9.73;7.47;;;13.20;99.90;;;;;;4929723;29;20216;-69
2023/04/18 12:57:38;;;;;;;8.10;7.30;;;13.20;99.90;;;;;;4929638;29;20238;-69